Time;durP1;ratioP1;P1;durP2;ratioP2;P2;SDS_P1;SDS_P2;PMS_P1;PMS_P2;Temp;Humidity;BMP_temperature;BMP_pressure;BME280_temperature;BME280_humidity;BME280_pressure;Samples;Min_cycle;Max_cycle;Signal;HPM_P1;HPM_P2
2024/05/01 00:00:48;;;;;;;12.93;8.55;;;;;;;11.81;89.61;100084.03;5369270;26;20493;-91
2024/05/01 00:03:14;;;;;;;11.63;8.10;;;;;;;11.76;90.21;100075.91;5370120;26;20019;-93
2024/05/01 00:05:40;;;;;;;11.35;8.18;;;;;;;11.79;89.38;100076.19;5369268;26;19995;-94
2024/05/01 00:08:07;;;;;;;11.88;8.70;;;;;;;11.83;88.70;100074.59;5371044;26;19994;-93
2024/05/01 00:10:32;;;;;;;9.50;7.35;;;;;;;11.90;89.70;100093.28;5399662;26;19991;-91
2024/05/01 00:12:58;;;;;;;13.18;8.52;;;;;;;11.98;88.99;100095.50;5399289;26;20013;-92
2024/05/01 00:15:24;;;;;;;12.27;8.13;;;;;;;11.96;88.26;100069.88;5369372;26;19995;-92
2024/05/01 00:17:53;;;;;;;12.38;8.70;;;;;;;11.89;87.46;100060.09;5399182;26;20023;-91
2024/05/01 00:20:20;;;;;;;14.50;9.20;;;;;;;12.03;88.45;100092.03;5398919;26;20013;-94
2024/05/01 00:22:46;;;;;;;11.93;8.73;;;;;;;12.02;87.91;100087.72;5399582;26;20010;-92
2024/05/01 00:25:12;;;;;;;10.40;7.63;;;;;;;11.96;87.09;100072.56;5398155;26;19995;-92
2024/05/01 00:27:38;;;;;;;11.90;8.05;;;;;;;11.95;88.35;100089.81;5369764;26;20298;-93
2024/05/01 00:30:04;;;;;;;12.80;8.95;;;;;;;11.77;89.07;100072.13;5369731;26;20298;-92
2024/05/01 00:32:30;;;;;;;12.93;8.38;;;;;;;11.90;88.98;100086.00;5370335;26;19998;-93
2024/05/01 00:34:56;;;;;;;12.05;8.20;;;;;;;11.94;88.60;100089.00;5397741;26;20321;-91
2024/05/01 00:37:22;;;;;;;12.05;8.10;;;;;;;11.81;87.96;100065.16;5370514;26;19991;-92
2024/05/01 00:39:48;;;;;;;10.85;7.78;;;;;;;11.97;88.59;100101.16;5369449;26;19995;-92
2024/05/01 00:42:14;;;;;;;8.93;7.53;;;;;;;11.73;88.35;100064.53;5428736;26;19997;-93
2024/05/01 00:44:42;;;;;;;12.52;7.32;;;;;;;11.83;88.49;100069.22;5398757;26;20438;-94
2024/05/01 00:47:09;;;;;;;9.32;7.60;;;;;;;11.84;87.98;100078.91;5427898;26;20060;-91
2024/05/01 00:49:35;;;;;;;10.88;8.18;;;;;;;11.87;88.45;100088.38;5370059;26;20117;-92
2024/05/01 00:52:00;;;;;;;9.60;7.70;;;;;;;11.69;88.65;100063.44;5369863;26;20448;-92
2024/05/01 00:54:26;;;;;;;10.10;6.95;;;;;;;11.85;88.49;100080.56;5368923;26;20009;-94
2024/05/01 00:56:53;;;;;;;8.25;7.35;;;;;;;11.80;88.35;100066.22;5369196;26;19991;-94
2024/05/01 00:59:20;;;;;;;9.18;7.15;;;;;;;11.77;88.43;100055.94;5399028;26;20370;-93
2024/05/01 01:01:46;;;;;;;10.32;7.28;;;;;;;11.91;88.65;100074.16;5428219;26;19994;-94
2024/05/01 01:04:15;;;;;;;11.55;7.75;;;;;;;11.92;89.22;100078.47;5398621;26;19998;-94
2024/05/01 01:06:45;;;;;;;9.80;7.00;;;;;;;11.78;89.04;100044.88;5399988;26;20010;-92
2024/05/01 01:09:12;;;;;;;9.68;6.72;;;;;;;11.86;88.65;100052.50;5428330;26;20007;-92
2024/05/01 01:11:49;;;;;;;10.30;6.97;;;;;;;11.82;88.41;100045.97;5398935;26;19991;-92
2024/05/01 01:14:15;;;;;;;14.80;10.23;;;;;;;11.97;88.31;100071.47;5370057;26;20374;-93
2024/05/01 01:16:40;;;;;;;7.65;6.15;;;;;;;11.77;88.44;100032.47;5398027;26;20068;-92
2024/05/01 01:19:07;;;;;;;8.20;5.97;;;;;;;11.91;88.04;100049.03;5369755;26;20007;-92
2024/05/01 01:21:33;;;;;;;7.93;6.13;;;;;;;11.92;87.42;100054.19;5398094;26;20035;-92
2024/05/01 01:23:59;;;;;;;12.07;6.07;;;;;;;11.95;87.50;100043.94;5398430;26;20044;-93
2024/05/01 01:26:25;;;;;;;10.90;5.75;;;;;;;11.95;87.54;100044.75;5397800;26;20007;-92
2024/05/01 01:28:51;;;;;;;8.35;5.60;;;;;;;11.88;87.59;100022.56;5368724;26;20075;-93
2024/05/01 01:31:17;;;;;;;7.28;5.60;;;;;;;12.02;87.13;100023.75;5399344;26;20302;-92
2024/05/01 01:33:45;;;;;;;6.70;5.13;;;;;;;12.05;86.19;100020.50;5398778;26;19999;-92
2024/05/01 01:36:11;;;;;;;9.48;5.30;;;;;;;11.93;86.74;100003.72;5369932;26;19999;-92
2024/05/01 01:38:38;;;;;;;7.15;5.00;;;;;;;11.96;86.94;100010.50;5428950;26;20002;-93
2024/05/01 01:41:06;;;;;;;8.15;5.63;;;;;;;11.86;87.69;100003.13;5398644;26;20390;-93
2024/05/01 01:43:31;;;;;;;9.13;6.05;;;;;;;12.00;88.41;100028.59;5398310;26;20068;-92
2024/05/01 01:45:57;;;;;;;9.57;6.00;;;;;;;11.98;88.04;100017.25;5368986;26;20003;-92
2024/05/01 01:48:23;;;;;;;7.30;5.68;;;;;;;11.83;88.36;99993.66;5427024;26;20006;-94
2024/05/01 01:50:49;;;;;;;7.38;5.47;;;;;;;12.01;87.82;100024.00;5399390;26;20040;-93
2024/05/01 01:53:15;;;;;;;8.27;5.88;;;;;;;11.82;88.06;99999.31;5398929;26;19995;-90
2024/05/01 01:55:40;;;;;;;8.80;5.63;;;;;;;11.93;87.74;100012.63;5369632;26;19993;-93
2024/05/01 01:58:06;;;;;;;6.75;5.65;;;;;;;11.97;87.79;100020.19;5368988;26;20028;-93
2024/05/01 02:00:32;;;;;;;7.88;6.00;;;;;;;12.04;86.42;100008.09;5368660;26;20370;-93
2024/05/01 02:03:03;;;;;;;8.63;5.70;;;;;;;12.01;86.13;100000.50;5368608;26;20015;-92
2024/05/01 02:05:40;;;;;;;6.70;5.78;;;;;;;12.04;86.22;100012.69;5429161;26;20025;-93
2024/05/01 02:08:08;;;;;;;9.32;5.47;;;;;;;11.99;87.46;100013.47;5373947;26;20309;-93
2024/05/01 02:10:34;;;;;;;7.68;5.88;;;;;;;11.87;87.25;99991.22;5369240;26;20011;-91
2024/05/01 02:13:00;;;;;;;9.55;6.07;;;;;;;11.96;87.04;100007.78;5368769;26;20305;-93
2024/05/01 02:15:26;;;;;;;7.47;6.03;;;;;;;11.83;87.10;99979.34;5398605;26;19991;-93
2024/05/01 02:17:52;;;;;;;11.80;5.85;;;;;;;11.80;87.94;99983.38;5397820;26;20006;-91
2024/05/01 02:20:19;;;;;;;10.63;6.25;;;;;;;11.81;87.97;99979.63;5368161;26;20036;-93
2024/05/01 02:22:45;;;;;;;8.63;6.40;;;;;;;11.88;87.03;99982.06;5368980;26;19998;-93
2024/05/01 02:25:11;;;;;;;8.13;6.25;;;;;;;11.97;87.43;99996.72;5398095;26;19987;-91
2024/05/01 02:27:39;;;;;;;9.30;5.95;;;;;;;11.92;87.45;99989.41;5427842;26;19990;-93
2024/05/01 02:30:07;;;;;;;7.05;6.00;;;;;;;11.78;87.29;99965.84;5433542;26;19994;-93
2024/05/01 02:32:33;;;;;;;9.57;5.97;;;;;;;11.91;88.02;99992.38;5463542;26;19994;-93
2024/05/01 02:34:59;;;;;;;10.20;6.35;;;;;;;11.91;88.04;99986.97;5404106;26;20009;-94
2024/05/01 02:37:27;;;;;;;7.32;6.00;;;;;;;11.85;88.14;99977.19;5434810;26;19990;-92
2024/05/01 02:39:53;;;;;;;12.27;7.05;;;;;;;11.77;88.20;99958.81;5462521;26;20018;-94
2024/05/01 02:42:18;;;;;;;10.20;8.07;;;;;;;11.93;87.75;99976.72;5404145;26;20317;-93
2024/05/01 02:44:45;;;;;;;9.18;6.22;;;;;;;11.92;88.44;99980.50;5434223;26;20005;-95
2024/05/01 02:47:10;;;;;;;11.50;7.90;;;;;;;11.94;88.25;99978.38;5404394;26;20448;-92
2024/05/01 02:49:37;;;;;;;9.15;6.47;;;;;;;11.92;88.64;99969.72;5433895;26;19994;-91
2024/05/01 02:52:06;;;;;;;6.95;5.75;;;;;;;11.81;88.62;99949.94;5403234;26;19994;-91
2024/05/01 02:54:32;;;;;;;10.23;6.03;;;;;;;11.93;88.53;99969.47;5434264;26;20002;-94
2024/05/01 02:56:59;;;;;;;8.15;5.38;;;;;;;11.80;88.54;99951.00;5403698;26;20016;-93
2024/05/01 02:59:25;;;;;;;9.98;5.38;;;;;;;11.85;88.33;99951.03;5462952;26;20491;-92
2024/05/01 03:01:51;;;;;;;8.10;5.25;;;;;;;11.82;88.12;99937.25;5401668;26;19994;-93
2024/05/01 03:04:17;;;;;;;10.27;5.18;;;;;;;12.02;88.31;99971.66;5432957;26;20025;-92
2024/05/01 03:06:45;;;;;;;10.00;5.20;;;;;;;11.91;88.38;99959.97;5432279;26;20006;-93
2024/05/01 03:09:13;;;;;;;10.52;5.65;;;;;;;11.84;88.42;99957.50;5462851;26;19994;-92
2024/05/01 03:11:40;;;;;;;6.75;5.32;;;;;;;11.76;88.36;99938.31;5461277;26;20146;-93
2024/05/01 03:14:08;;;;;;;8.85;4.97;;;;;;;11.93;88.26;99969.47;5432919;26;20006;-93
2024/05/01 03:16:34;;;;;;;7.57;5.10;;;;;;;11.75;88.40;99942.09;5404920;26;19994;-93
2024/05/01 03:19:00;;;;;;;6.15;5.20;;;;;;;11.90;88.34;99961.06;5403776;26;19994;-93
2024/05/01 03:21:26;;;;;;;6.85;5.50;;;;;;;11.87;88.78;99953.44;5402708;26;19994;-93
2024/05/01 03:23:53;;;;;;;7.55;5.28;;;;;;;11.85;88.67;99951.03;5432376;26;20002;-93
2024/05/01 03:26:22;;;;;;;10.00;5.35;;;;;;;11.97;88.65;99964.31;5452089;26;20027;-93
2024/05/01 03:28:47;;;;;;;7.65;5.38;;;;;;;11.96;88.83;99970.00;5368642;26;20003;-92
2024/05/01 03:31:14;;;;;;;8.32;5.38;;;;;;;11.85;89.33;99956.44;5367742;26;20010;-92
2024/05/01 03:33:42;;;;;;;8.88;5.75;;;;;;;11.97;88.58;99964.31;5394978;26;19999;-91
2024/05/01 03:36:12;;;;;;;8.82;6.88;;;;;;;11.83;88.66;99947.78;5370478;26;19999;-94
2024/05/01 03:38:39;;;;;;;8.95;5.63;;;;;;;11.93;88.35;99952.44;5399212;26;20006;-96
2024/05/01 03:41:05;;;;;;;7.80;6.15;;;;;;;11.98;88.30;99954.38;5398460;26;19991;-95
2024/05/01 03:43:31;;;;;;;10.43;5.25;;;;;;;11.87;87.94;99930.00;5369637;26;20002;-96
2024/05/01 03:45:58;;;;;;;10.70;5.05;;;;;;;12.08;87.83;99962.50;5399780;26;20002;-96
2024/05/01 03:48:28;;;;;;;10.98;5.38;;;;;;;11.98;88.03;99938.97;5369700;26;19991;-96
2024/05/01 03:50:54;;;;;;;6.68;5.45;;;;;;;11.97;87.83;99940.03;5428622;26;20409;-94
2024/05/01 03:53:21;;;;;;;11.85;6.28;;;;;;;12.01;87.98;99959.22;5399233;26;20336;-94
2024/05/01 03:55:51;;;;;;;7.15;6.25;;;;;;;11.95;87.57;99944.09;5369254;26;19999;-96
2024/05/01 03:58:18;;;;;;;11.65;6.50;;;;;;;12.13;87.67;99978.72;5429191;26;20006;-95
2024/05/01 04:00:44;;;;;;;9.10;5.40;;;;;;;12.02;87.65;99950.88;5398182;26;20410;-96
2024/05/01 04:03:11;;;;;;;8.18;5.88;;;;;;;11.97;87.15;99942.75;5427468;26;20424;-96
2024/05/01 04:05:36;;;;;;;7.72;5.95;;;;;;;11.93;87.47;99934.38;5398642;26;19994;-96
2024/05/01 04:08:06;;;;;;;8.80;6.10;;;;;;;12.07;87.08;99950.88;5369696;26;20006;-96
2024/05/01 04:10:32;;;;;;;9.10;6.55;;;;;;;12.28;86.87;99975.25;5369127;26;20043;-95
2024/05/01 04:12:58;;;;;;;7.13;5.18;;;;;;;12.04;86.57;99939.81;5369135;26;20007;-95
2024/05/01 04:15:23;;;;;;;9.30;6.00;;;;;;;12.06;86.94;99943.88;5368030;26;20006;-96
2024/05/01 04:17:49;;;;;;;6.97;5.68;;;;;;;12.19;86.60;99979.56;5367331;26;19999;-96
2024/05/01 04:20:15;;;;;;;6.55;5.38;;;;;;;12.15;86.42;99960.38;5368939;26;20007;-94
2024/05/01 04:22:42;;;;;;;6.57;5.25;;;;;;;12.38;86.40;99982.59;5398555;26;19995;-96
2024/05/01 04:25:09;;;;;;;6.40;4.95;;;;;;;12.23;86.17;99954.44;5371795;26;19999;-94
2024/05/01 04:27:35;;;;;;;8.45;6.10;;;;;;;12.23;85.60;99951.75;5400487;26;20003;-95
2024/05/01 04:30:02;;;;;;;7.35;5.00;;;;;;;12.38;84.38;99950.97;5401129;26;19991;-96
2024/05/01 04:32:30;;;;;;;7.95;5.53;;;;;;;12.49;84.91;99962.63;5372268;26;19987;-96
2024/05/01 04:34:58;;;;;;;7.50;4.90;;;;;;;12.66;84.24;99978.63;5402472;26;19993;-96
2024/05/01 04:37:24;;;;;;;7.25;5.35;;;;;;;12.46;84.07;99941.56;5372372;26;19999;-94
2024/05/01 04:39:52;;;;;;;10.10;5.25;;;;;;;12.68;82.88;99971.06;5400368;26;19987;-95
2024/05/01 04:42:20;;;;;;;10.38;5.40;;;;;;;12.52;82.97;99932.38;5402078;26;19998;-95
2024/05/01 04:44:47;;;;;;;6.55;4.55;;;;;;;12.63;83.49;99944.81;5401379;26;20041;-96
2024/05/01 04:47:14;;;;;;;11.18;5.30;;;;;;;12.71;84.07;99963.22;5401182;26;20028;-95
2024/05/01 04:49:40;;;;;;;7.88;5.38;;;;;;;12.81;83.46;99957.00;5371355;26;19995;-94
2024/05/01 04:52:05;;;;;;;7.90;5.15;;;;;;;12.68;84.03;99934.03;5370845;26;20001;-96
2024/05/01 04:54:31;;;;;;;9.77;5.00;;;;;;;12.76;84.17;99940.78;5371169;26;20071;-96
2024/05/01 04:56:57;;;;;;;6.68;4.60;;;;;;;12.95;83.23;99949.19;5372046;26;19998;-95
2024/05/01 04:59:25;;;;;;;6.30;4.93;;;;;;;12.96;83.23;99944.59;5371844;26;19999;-96
2024/05/01 05:01:50;;;;;;;6.95;4.63;;;;;;;13.00;82.32;99926.75;5401101;26;20007;-96
2024/05/01 05:04:17;;;;;;;7.75;4.25;;;;;;;13.02;81.19;99911.88;5372466;26;19995;-96
2024/05/01 05:06:46;;;;;;;9.45;4.38;;;;;;;13.21;80.46;99916.72;5371631;26;20006;-96
2024/05/01 05:09:11;;;;;;;11.23;4.78;;;;;;;13.33;81.12;99947.03;5371204;26;19999;-92
2024/05/01 05:11:40;;;;;;;7.90;4.88;;;;;;;13.08;81.10;99907.28;5369089;26;19999;-92
2024/05/01 05:14:09;;;;;;;9.00;5.20;;;;;;;13.07;81.04;99911.06;5400800;26;20499;-94
2024/05/01 05:16:35;;;;;;;6.00;5.10;;;;;;;13.29;82.66;99941.34;5429841;26;20005;-93
2024/05/01 05:19:01;;;;;;;6.53;4.97;;;;;;;13.22;82.32;99907.53;5369977;26;20318;-92
2024/05/01 05:21:27;;;;;;;8.85;5.22;;;;;;;13.34;81.98;99918.91;5369820;26;20396;-93
2024/05/01 05:23:53;;;;;;;13.85;5.45;;;;;;;13.26;82.36;99922.97;5369256;26;19999;-94
2024/05/01 05:26:20;;;;;;;10.23;5.57;;;;;;;13.38;82.42;99933.50;5428691;26;20067;-93
2024/05/01 05:28:46;;;;;;;10.85;5.20;;;;;;;13.26;82.72;99941.06;5369760;26;20010;-94
2024/05/01 05:31:11;;;;;;;7.18;5.55;;;;;;;13.35;82.10;99934.06;5369138;26;20425;-91
2024/05/01 05:33:42;;;;;;;8.50;5.40;;;;;;;13.25;82.41;99909.69;5427908;26;19991;-91
2024/05/01 05:36:07;;;;;;;9.73;5.32;;;;;;;13.24;81.30;99883.72;5365901;26;19991;-91
2024/05/01 05:38:33;;;;;;;7.55;5.78;;;;;;;13.45;81.25;99896.16;5361687;26;20010;-92
2024/05/01 05:40:59;;;;;;;9.55;6.47;;;;;;;13.44;80.86;99904.56;5333981;26;20322;-91
2024/05/01 05:43:24;;;;;;;7.65;5.93;;;;;;;13.59;81.33;99919.94;5333075;26;20011;-90
2024/05/01 05:45:50;;;;;;;8.32;5.10;;;;;;;13.58;80.61;99904.78;5361408;26;20106;-91
2024/05/01 05:48:17;;;;;;;6.95;5.20;;;;;;;13.59;80.29;99895.56;5362161;26;20001;-93
2024/05/01 05:50:44;;;;;;;5.95;4.57;;;;;;;13.64;79.14;99890.97;5363284;26;20060;-93
2024/05/01 05:53:13;;;;;;;9.80;6.18;;;;;;;13.90;79.45;99924.19;5364076;26;19992;-95
2024/05/01 05:55:41;;;;;;;10.38;5.35;;;;;;;13.83;79.32;99898.47;5338831;26;19999;-95
2024/05/01 05:58:07;;;;;;;8.45;5.53;;;;;;;13.97;79.76;99923.06;5395198;26;19996;-96
2024/05/01 06:00:33;;;;;;;9.48;5.50;;;;;;;14.00;79.21;99903.53;5337281;26;20326;-96
2024/05/01 06:03:01;;;;;;;7.35;5.25;;;;;;;14.03;78.67;99914.63;5336236;26;20000;-96
2024/05/01 06:05:27;;;;;;;7.63;5.57;;;;;;;13.71;78.32;99882.53;5366762;26;20377;-96
2024/05/01 06:07:54;;;;;;;9.93;5.63;;;;;;;13.73;78.72;99886.59;5367286;26;20010;-96
2024/05/01 06:10:19;;;;;;;6.93;5.25;;;;;;;13.86;78.39;99887.09;5365219;26;19992;-95
2024/05/01 06:12:45;;;;;;;10.15;6.03;;;;;;;14.02;79.05;99915.72;5363414;26;20071;-94
2024/05/01 06:15:14;;;;;;;9.48;5.40;;;;;;;13.98;78.23;99889.47;5369195;26;20019;-96
2024/05/01 06:17:42;;;;;;;7.13;5.30;;;;;;;13.87;79.06;99876.00;5338970;26;20004;-94
2024/05/01 06:20:18;;;;;;;11.15;6.03;;;;;;;13.99;79.25;99896.53;5339214;26;20007;-95
2024/05/01 06:22:49;;;;;;;8.30;6.90;;;;;;;14.15;78.74;99898.03;5369840;26;19995;-96
2024/05/01 06:25:16;;;;;;;8.75;6.68;;;;;;;14.10;78.54;99898.88;5338049;26;20034;-92
2024/05/01 06:28:14;;;;;;;10.57;8.00;;;;;;;14.03;78.93;99890.28;5365830;26;20067;-93
2024/05/01 06:30:43;;;;;;;10.60;6.70;;;;;;;14.07;78.80;99883.22;5392415;26;20003;-92
2024/05/01 06:33:17;;;;;;;8.93;5.85;;;;;;;14.25;78.34;99891.78;5364176;26;19987;-93
2024/05/01 06:35:45;;;;;;;6.65;5.50;;;;;;;14.34;77.44;99900.94;5337694;26;19988;-96
2024/05/01 06:38:10;;;;;;;13.07;5.88;;;;;;;14.28;77.77;99899.34;5334717;26;20156;-96
2024/05/01 06:40:38;;;;;;;11.15;6.30;;;;;;;14.12;78.05;99891.28;5335784;26;19988;-96
2024/05/01 06:43:04;;;;;;;10.65;5.10;;;;;;;14.11;77.22;99881.56;5336490;26;19995;-96
2024/05/01 06:45:32;;;;;;;10.07;5.05;;;;;;;14.18;76.48;99870.41;5335932;26;20010;-96
2024/05/01 06:47:58;;;;;;;11.20;5.43;;;;;;;14.47;76.06;99900.31;5336393;26;20033;-95
2024/05/01 06:50:26;;;;;;;9.52;5.07;;;;;;;14.59;75.34;99880.19;5364460;26;20364;-96
2024/05/01 06:52:57;;;;;;;8.43;5.65;;;;;;;14.54;74.87;99843.88;5336309;26;19992;-96
2024/05/01 06:55:24;;;;;;;11.85;5.53;;;;;;;14.53;76.52;99866.66;5336096;26;20430;-96
2024/05/01 06:57:49;;;;;;;7.55;6.05;;;;;;;14.79;75.11;99881.94;5337880;26;19995;-96
2024/05/01 07:00:15;;;;;;;13.10;4.97;;;;;;;14.55;74.08;99877.22;5335463;26;20057;-93
2024/05/01 07:02:41;;;;;;;11.90;5.43;;;;;;;14.93;73.76;99893.75;5332401;26;20491;-93
2024/05/01 07:05:07;;;;;;;10.68;5.57;;;;;;;14.84;75.61;99893.56;5332077;26;19992;-94
2024/05/01 07:07:32;;;;;;;11.63;5.85;;;;;;;15.01;74.66;99897.75;5332659;26;20003;-94
2024/05/01 07:09:59;;;;;;;10.68;5.47;;;;;;;14.88;75.64;99874.81;5332485;26;19996;-94
2024/05/01 07:12:25;;;;;;;8.65;5.30;;;;;;;14.94;74.28;99858.22;5361108;26;20387;-94
2024/05/01 07:14:50;;;;;;;8.52;5.20;;;;;;;14.99;73.93;99884.47;5332345;26;19995;-94
2024/05/01 07:17:16;;;;;;;7.55;5.60;;;;;;;15.06;73.88;99901.22;5332265;26;19996;-92
2024/05/01 07:19:44;;;;;;;9.38;5.70;;;;;;;15.15;73.13;99896.81;5331760;26;19991;-92
2024/05/01 07:22:09;;;;;;;7.90;5.43;;;;;;;15.18;73.26;99906.28;5369156;26;20075;-94
2024/05/01 07:24:36;;;;;;;7.45;5.32;;;;;;;15.12;73.52;99896.56;5368011;26;20007;-94
2024/05/01 07:27:13;;;;;;;9.32;5.18;;;;;;;15.33;73.26;99906.09;5368721;26;20450;-95
2024/05/01 07:29:39;;;;;;;10.18;5.22;;;;;;;15.29;72.30;99887.97;5373139;26;19994;-96
2024/05/01 07:32:05;;;;;;;9.75;5.07;;;;;;;15.42;72.56;99900.06;5371401;26;20302;-96
2024/05/01 07:34:31;;;;;;;8.50;5.05;;;;;;;15.29;71.95;99904.25;5401689;26;19994;-94
2024/05/01 07:36:56;;;;;;;8.80;5.32;;;;;;;15.48;71.05;99924.16;5371817;26;19995;-96
2024/05/01 07:39:22;;;;;;;10.77;4.93;;;;;;;15.43;70.03;99898.97;5370564;26;20044;-95
2024/05/01 07:41:48;;;;;;;5.78;3.95;;;;;;;15.49;70.47;99917.63;5370882;26;20025;-96
2024/05/01 07:44:15;;;;;;;7.93;4.75;;;;;;;15.57;69.49;99906.13;5371981;26;19998;-96
2024/05/01 07:46:41;;;;;;;11.27;5.20;;;;;;;15.54;70.86;99912.16;5370702;26;20421;-92
2024/05/01 07:49:10;;;;;;;9.10;4.90;;;;;;;15.55;70.93;99907.53;5368524;26;20022;-93
2024/05/01 07:51:39;;;;;;;9.52;4.90;;;;;;;15.50;71.04;99913.00;5428373;26;20068;-93
2024/05/01 07:54:04;;;;;;;10.43;4.82;;;;;;;15.39;71.15;99909.59;5370044;26;20437;-93
2024/05/01 07:56:30;;;;;;;11.13;4.82;;;;;;;15.32;71.29;99909.94;5368660;26;20068;-94
2024/05/01 07:58:58;;;;;;;9.02;4.28;;;;;;;15.00;71.59;99906.97;5370800;26;19995;-93
2024/05/01 08:01:24;;;;;;;9.10;4.10;;;;;;;14.97;71.63;99896.72;5371870;26;20257;-93
2024/05/01 08:03:49;;;;;;;10.93;4.97;;;;;;;15.00;72.42;99920.53;5381494;26;19998;-92
2024/05/01 08:06:16;;;;;;;8.10;4.90;;;;;;;14.89;71.54;99901.63;5406731;26;20005;-92
2024/05/01 08:08:41;;;;;;;10.70;5.70;;;;;;;15.01;71.26;99898.56;5435073;26;19990;-91
2024/05/01 08:11:07;;;;;;;15.50;5.18;;;;;;;15.50;70.66;99900.25;5471041;26;20002;-91
2024/05/01 08:13:33;;;;;;;12.45;5.57;;;;;;;15.95;69.01;99927.97;5459909;26;20005;-92
2024/05/01 08:15:59;;;;;;;16.55;7.28;;;;;;;16.07;67.57;99892.25;5430387;26;20060;-93
2024/05/01 08:18:25;;;;;;;14.18;5.80;;;;;;;16.41;66.55;99912.19;5429310;26;19995;-91
2024/05/01 08:20:50;;;;;;;18.13;11.10;;;;;;;16.45;65.58;99903.13;5429574;26;19983;-89
2024/05/01 08:23:16;;;;;;;14.25;8.70;;;;;;;16.65;65.34;99884.91;5429202;26;20051;-92
2024/05/01 08:25:46;;;;;;;9.27;5.20;;;;;;;16.82;63.45;99890.63;5400701;26;20002;-92
2024/05/01 08:28:12;;;;;;;15.00;6.68;;;;;;;16.84;63.36;99883.00;5464248;26;20005;-93
2024/05/01 08:30:40;;;;;;;7.32;5.22;;;;;;;16.74;62.58;99886.63;5405629;26;19986;-96
2024/05/01 08:33:11;;;;;;;8.75;4.80;;;;;;;16.91;62.97;99888.88;5413236;26;19986;-96
2024/05/01 08:35:45;;;;;;;10.88;5.32;;;;;;;16.89;61.48;99873.94;5413623;26;20005;-96
2024/05/01 08:38:16;;;;;;;9.10;5.30;;;;;;;17.30;60.15;99900.44;5416593;26;19994;-96
2024/05/01 08:40:42;;;;;;;13.40;4.37;;;;;;;17.45;60.60;99872.09;5405099;26;20334;-92
2024/05/01 08:43:10;;;;;;;9.63;4.03;;;;;;;17.54;60.70;99906.50;5434589;26;20223;-92
2024/05/01 08:45:40;;;;;;;8.10;4.18;;;;;;;17.58;59.89;99898.53;5407279;26;20013;-93
2024/05/01 08:48:06;;;;;;;9.15;4.10;;;;;;;17.86;58.66;99907.53;5406044;26;19994;-93
2024/05/01 08:50:32;;;;;;;7.82;4.20;;;;;;;17.93;58.95;99907.16;5405524;26;19991;-92
2024/05/01 08:53:01;;;;;;;18.98;4.75;;;;;;;17.69;61.18;99878.16;5434678;26;20005;-92
2024/05/01 08:55:27;;;;;;;9.80;4.70;;;;;;;17.34;62.05;99890.56;5404494;26;19994;-88
2024/05/01 08:57:53;;;;;;;7.32;4.30;;;;;;;17.30;61.06;99875.94;5403443;26;20428;-91
2024/05/01 09:00:20;;;;;;;11.40;4.35;;;;;;;17.40;60.83;99904.88;5403667;26;19994;-91
2024/05/01 09:02:46;;;;;;;12.23;4.72;;;;;;;17.27;62.12;99884.72;5432935;26;20002;-90
2024/05/01 09:05:14;;;;;;;14.73;5.18;;;;;;;17.12;63.10;99873.00;5432478;26;19993;-89
2024/05/01 09:07:39;;;;;;;7.57;4.43;;;;;;;17.29;62.32;99875.13;5434202;26;19998;-90
2024/05/01 09:10:05;;;;;;;7.75;4.22;;;;;;;17.11;61.17;99886.88;5433583;26;19994;-90
2024/05/01 09:12:33;;;;;;;9.15;5.90;;;;;;;17.15;62.22;99902.31;5433490;26;19994;-91
2024/05/01 09:15:12;;;;;;;6.72;3.90;;;;;;;17.07;60.72;99867.63;5404486;26;20038;-90
2024/05/01 09:17:37;;;;;;;15.65;10.63;;;;;;;17.13;60.70;99881.97;5434269;26;20002;-88
2024/05/01 09:20:19;;;;;;;6.68;4.40;;;;;;;17.16;60.96;99889.50;5403912;26;19991;-91
2024/05/01 09:22:54;;;;;;;7.55;4.25;;;;;;;17.21;61.13;99880.47;5463544;26;20001;-90
2024/05/01 09:25:23;;;;;;;8.93;4.30;;;;;;;17.10;62.90;99887.97;5459783;26;20420;-90
2024/05/01 09:27:54;;;;;;;7.38;4.20;;;;;;;17.06;63.19;99876.09;5395986;26;20008;-90
2024/05/01 09:30:19;;;;;;;9.18;5.03;;;;;;;17.10;63.57;99891.53;5397997;26;20006;-91
2024/05/01 09:32:45;;;;;;;13.73;5.18;;;;;;;17.15;63.21;99885.97;5397698;26;20003;-91
2024/05/01 09:35:11;;;;;;;9.55;4.32;;;;;;;17.07;62.46;99883.94;5457815;26;19995;-91
2024/05/01 09:37:36;;;;;;;10.60;4.20;;;;;;;17.23;61.95;99870.09;5456619;26;20071;-91
2024/05/01 09:40:03;;;;;;;7.82;4.00;;;;;;;17.27;61.16;99890.94;5394299;26;20014;-92
2024/05/01 09:42:28;;;;;;;11.18;5.10;;;;;;;17.26;62.61;99885.81;5420688;26;20449;-91
2024/05/01 09:44:58;;;;;;;6.03;4.60;;;;;;;17.12;61.85;99855.84;5415747;26;20014;-89
2024/05/01 09:47:32;;;;;;;4.50;3.25;;;;;;;17.36;60.29;99866.56;5426864;26;20035;-89
2024/05/01 09:50:03;;;;;;;9.95;3.83;;;;;;;17.45;59.39;99869.38;5426933;26;20305;-89
2024/05/01 09:52:29;;;;;;;6.35;3.67;;;;;;;17.59;59.11;99853.84;5398601;26;19999;-92
2024/05/01 09:54:54;;;;;;;11.52;4.50;;;;;;;17.68;60.52;99840.31;5426817;26;20071;-91
2024/05/01 09:57:22;;;;;;;8.45;3.92;;;;;;;17.98;61.11;99852.53;5427335;26;20019;-91
2024/05/01 09:59:49;;;;;;;10.32;4.20;;;;;;;18.07;60.69;99858.06;5428100;26;20003;-93
2024/05/01 10:02:15;;;;;;;11.77;4.20;;;;;;;18.07;59.51;99844.44;5428592;26;20011;-91
2024/05/01 10:05:02;;;;;;;16.08;3.83;;;;;;;18.27;59.26;99867.69;5398578;26;20037;-89
2024/05/01 10:08:01;;;;;;;10.82;3.85;;;;;;;18.18;60.49;99862.97;5430753;26;20017;-91
2024/05/01 10:10:34;;;;;;;10.63;4.10;;;;;;;18.41;59.38;99845.81;5387175;26;19987;-91
2024/05/01 10:13:04;;;;;;;6.97;4.07;;;;;;;18.53;58.75;99849.63;5456346;26;20011;-91
2024/05/01 10:15:34;;;;;;;10.55;4.43;;;;;;;18.45;58.42;99841.38;5390371;26;19999;-90
2024/05/01 10:18:17;;;;;;;8.07;3.10;;;;;;;18.52;55.93;99819.94;5420976;26;20441;-89
2024/05/01 10:20:47;;;;;;;5.95;3.33;;;;;;;18.76;55.64;99822.34;5419638;26;20003;-91
2024/05/01 10:23:19;;;;;;;5.13;3.45;;;;;;;18.89;55.98;99850.69;5419887;26;20005;-91
2024/05/01 10:25:51;;;;;;;22.85;20.58;;;;;;;18.84;54.92;99818.88;5450700;26;20023;-91
2024/05/01 10:28:41;;;;;;;5.38;3.80;;;;;;;18.99;53.92;99806.78;5347671;26;20014;-91
2024/05/01 10:31:10;;;;;;;9.05;3.38;;;;;;;19.35;53.48;99833.88;5398303;26;20014;-91
2024/05/01 10:33:37;;;;;;;5.15;3.55;;;;;;;19.25;54.48;99817.00;5375790;26;20006;-91
2024/05/01 10:36:06;;;;;;;5.50;3.20;;;;;;;19.36;54.24;99801.91;5384330;26;20000;-91
2024/05/01 10:38:36;;;;;;;5.18;3.15;;;;;;;19.58;53.09;99828.34;5422117;26;20045;-92
2024/05/01 10:41:02;;;;;;;4.53;2.72;;;;;;;19.06;53.15;99806.31;5392466;26;20030;-92
2024/05/01 10:43:28;;;;;;;7.95;2.78;;;;;;;19.37;53.23;99817.19;5391140;26;19984;-91
2024/05/01 10:45:56;;;;;;;3.88;2.70;;;;;;;19.52;53.89;99835.88;5391676;26;20012;-92
2024/05/01 10:48:23;;;;;;;5.97;2.92;;;;;;;19.53;53.30;99806.66;5362031;26;20008;-91
2024/05/01 10:50:49;;;;;;;8.63;2.97;;;;;;;19.79;53.07;99812.16;5362310;26;19992;-92
2024/05/01 10:53:16;;;;;;;4.45;2.78;;;;;;;19.99;51.51;99825.22;5362137;26;19999;-94
2024/05/01 10:55:42;;;;;;;6.55;2.65;;;;;;;19.59;51.97;99814.38;5362555;26;20033;-94
2024/05/01 10:58:29;;;;;;;5.25;2.70;;;;;;;19.91;51.70;99798.69;5362865;26;20003;-91
2024/05/01 11:00:57;;;;;;;7.20;2.63;;;;;;;19.96;50.94;99814.13;5392382;26;20095;-95
2024/05/01 11:03:25;;;;;;;6.68;3.17;;;;;;;19.78;51.60;99807.84;5392514;26;20011;-94
2024/05/01 11:05:51;;;;;;;6.97;3.67;;;;;;;19.58;51.88;99811.94;5362091;26;20019;-90
2024/05/01 11:08:22;;;;;;;5.85;2.80;;;;;;;19.55;52.11;99815.31;5390490;26;19992;-92
2024/05/01 11:10:48;;;;;;;8.38;3.30;;;;;;;19.29;52.71;99804.31;5365295;26;20010;-92
2024/05/01 11:13:14;;;;;;;4.07;2.67;;;;;;;19.18;52.90;99817.44;5363647;26;19992;-92
2024/05/01 11:15:42;;;;;;;12.15;2.70;;;;;;;18.80;53.87;99808.91;5363360;26;19999;-93
2024/05/01 11:18:10;;;;;;;5.20;2.70;;;;;;;18.92;54.04;99823.56;5391726;26;19999;-92
2024/05/01 11:20:36;;;;;;;7.90;2.65;;;;;;;18.85;53.87;99815.03;5394873;26;19995;-92
2024/05/01 11:23:06;;;;;;;8.75;3.00;;;;;;;18.65;54.92;99819.06;5362391;26;19992;-93
2024/05/01 11:25:31;;;;;;;5.20;2.67;;;;;;;18.60;54.95;99799.31;5393480;26;20007;-93
2024/05/01 11:27:57;;;;;;;9.90;3.53;;;;;;;18.63;54.53;99809.56;5390132;26;20502;-93
2024/05/01 11:30:25;;;;;;;7.57;2.92;;;;;;;18.66;54.34;99792.59;5391575;26;20006;-94